Time;durP1;ratioP1;P1;durP2;ratioP2;P2;SDS_P1;SDS_P2;PMS_P1;PMS_P2;Temp;Humidity;BMP_temperature;BMP_pressure;BME280_temperature;BME280_humidity;BME280_pressure;Samples;Min_cycle;Max_cycle;Signal;HPM_P1;HPM_P2
2023/08/31 04:16:44;;;;;;;;;15.50;15.50;;;;;;;;6488409;39;14896;-59
2023/08/31 04:22:47;;;;;;;;;15.00;14.33;;;;;;;;6491011;46;9038;-59
2023/08/31 04:28:49;;;;;;;;;23.33;18.33;;;;;;;;6491882;46;8890;-58
2023/08/31 04:34:52;;;;;;;;;17.67;17.33;;;;;;;;6489430;36;8929;-59
2023/08/31 04:40:59;;;;;;;;;19.33;18.33;;;;;;;;6490666;46;8990;-59
2023/08/31 04:47:05;;;;;;;;;20.75;20.25;;;;;;;;6492354;39;8952;-59
2023/08/31 04:53:07;;;;;;;;;14.00;11.50;;;;;;;;6490999;39;8982;-57
2023/08/31 04:59:10;;;;;;;;;19.00;17.33;;;;;;;;6491452;39;9058;-57
2023/08/31 05:05:13;;;;;;;;;20.67;20.00;;;;;;;;6491445;39;9627;-58
2023/08/31 05:11:19;;;;;;;;;21.00;18.00;;;;;;;;6491906;31;8966;-58
2023/08/31 05:17:21;;;;;;;;;19.67;17.00;;;;;;;;6491334;39;8991;-58
2023/08/31 05:23:26;;;;;;;;;16.33;16.33;;;;;;;;6491253;39;8939;-58
2023/08/31 05:29:29;;;;;;;;;22.33;20.33;;;;;;;;6491627;39;9014;-58
2023/08/31 05:35:35;;;;;;;;;18.25;17.75;;;;;;;;6489845;46;8961;-58
2023/08/31 05:41:43;;;;;;;;;18.50;18.50;;;;;;;;6490532;31;8998;-58
2023/08/31 05:47:46;;;;;;;;;15.00;14.75;;;;;;;;6490872;39;8960;-58
2023/08/31 05:53:49;;;;;;;;;15.00;14.00;;;;;;;;6489975;46;10042;-59
2023/08/31 05:59:51;;;;;;;;;21.00;19.00;;;;;;;;6491520;39;9653;-59
2023/08/31 06:05:54;;;;;;;;;17.75;15.25;;;;;;;;6490375;31;8975;-59
2023/08/31 06:11:59;;;;;;;;;19.00;17.25;;;;;;;;6502180;36;8974;-59
2023/08/31 06:18:07;;;;;;;;;15.50;15.00;;;;;;;;6488894;39;9093;-58
2023/08/31 06:24:12;;;;;;;;;18.50;18.50;;;;;;;;6488007;39;9037;-57
2023/08/31 06:30:21;;;;;;;;;12.75;12.25;;;;;;;;6489580;31;8917;-58
2023/08/31 06:36:24;;;;;;;;;14.00;14.00;;;;;;;;6489885;31;9010;-58
2023/08/31 06:42:27;;;;;;;;;17.75;16.25;;;;;;;;6308620;31;10000283;-59
2023/08/31 06:48:30;;;;;;;;;15.50;15.50;;;;;;;;6489531;39;9201;-58
2023/08/31 06:54:33;;;;;;;;;16.75;16.75;;;;;;;;6487635;39;8969;-58
2023/08/31 07:00:39;;;;;;;;;19.00;17.25;;;;;;;;6490327;39;8941;-58
2023/08/31 07:06:46;;;;;;;;;14.25;14.00;;;;;;;;6486792;39;9099;-59
2023/08/31 07:12:51;;;;;;;;;14.50;14.50;;;;;;;;6487112;47;8965;-57
2023/08/31 07:18:55;;;;;;;;;15.75;15.25;;;;;;;;6486839;39;8991;-59
2023/08/31 07:24:57;;;;;;;;;13.75;13.75;;;;;;;;6487847;47;9012;-58
2023/08/31 07:31:06;;;;;;;;;17.75;16.75;;;;;;;;6489015;39;8997;-58
2023/08/31 07:37:09;;;;;;;;;17.00;17.00;;;;;;;;6487268;39;8976;-58
2023/08/31 07:43:11;;;;;;;;;19.25;17.25;;;;;;;;6487916;39;8999;-58
2023/08/31 07:49:14;;;;;;;;;18.50;17.25;;;;;;;;6490015;39;9009;-58
2023/08/31 07:55:16;;;;;;;;;20.75;20.75;;;;;;;;6489413;39;8990;-60
2023/08/31 08:01:20;;;;;;;;;16.75;16.75;;;;;;;;6489856;46;9015;-59
2023/08/31 08:07:27;;;;;;;;;13.75;13.25;;;;;;;;6490045;46;9044;-58
2023/08/31 08:13:31;;;;;;;;;15.75;15.75;;;;;;;;6489888;46;8978;-59
2023/08/31 08:19:33;;;;;;;;;15.75;15.75;;;;;;;;6489397;46;8995;-58
2023/08/31 08:25:39;;;;;;;;;18.50;16.25;;;;;;;;6489849;39;8992;-58
2023/08/31 08:31:43;;;;;;;;;19.00;15.50;;;;;;;;6492008;31;9081;-58
2023/08/31 08:37:46;;;;;;;;;15.00;13.50;;;;;;;;6490417;39;9051;-58
2023/08/31 08:43:52;;;;;;;;;14.50;14.50;;;;;;;;6491132;39;8998;-59
2023/08/31 08:49:58;;;;;;;;;13.75;12.25;;;;;;;;6491954;46;8982;-59
2023/08/31 08:56:04;;;;;;;;;17.25;17.25;;;;;;;;6488950;31;8981;-58
2023/08/31 09:02:10;;;;;;;;;18.50;17.50;;;;;;;;6489107;39;8961;-59
2023/08/31 09:08:15;;;;;;;;;11.00;11.00;;;;;;;;6490283;39;8973;-58
2023/08/31 09:14:21;;;;;;;;;15.50;13.75;;;;;;;;6488767;31;8957;-59
2023/08/31 09:20:26;;;;;;;;;12.00;11.75;;;;;;;;6491248;31;9046;-59
2023/08/31 09:26:30;;;;;;;;;15.00;15.00;;;;;;;;6490662;31;9054;-57
2023/08/31 09:32:35;;;;;;;;;15.75;14.50;;;;;;;;6490846;31;8928;-59
2023/08/31 09:38:45;;;;;;;;;14.25;12.75;;;;;;;;6491368;31;8951;-60
2023/08/31 09:44:49;;;;;;;;;12.75;12.00;;;;;;;;6491384;31;8974;-58
2023/08/31 09:51:09;;;;;;;;;13.25;12.00;;;;;;;;6490916;31;8970;-60
2023/08/31 09:57:16;;;;;;;;;8.50;8.50;;;;;;;;6490715;35;8912;-58
2023/08/31 10:03:20;;;;;;;;;12.25;12.00;;;;;;;;6490820;31;9030;-59
2023/08/31 10:09:26;;;;;;;;;15.25;14.00;;;;;;;;6491100;39;9520;-59
2023/08/31 10:15:37;;;;;;;;;13.25;12.50;;;;;;;;6489961;39;8901;-59
2023/08/31 10:21:41;;;;;;;;;8.75;6.50;;;;;;;;6490640;39;8942;-59
2023/08/31 10:27:50;;;;;;;;;10.50;10.50;;;;;;;;6489526;39;8929;-58
2023/08/31 10:34:04;;;;;;;;;12.00;12.00;;;;;;;;6491301;31;9076;-58
2023/08/31 10:40:12;;;;;;;;;12.00;9.25;;;;;;;;6489831;39;9684;-58
2023/08/31 10:46:28;;;;;;;;;12.00;10.00;;;;;;;;6490141;31;8883;-58
2023/08/31 10:52:44;;;;;;;;;15.50;15.50;;;;;;;;6488971;39;8962;-59
2023/08/31 10:59:01;;;;;;;;;10.50;10.50;;;;;;;;6487927;31;8970;-58
2023/08/31 11:05:18;;;;;;;;;10.00;10.00;;;;;;;;6488981;31;8966;-59
2023/08/31 11:11:26;;;;;;;;;9.50;8.75;;;;;;;;6490323;31;8922;-58
2023/08/31 11:17:34;;;;;;;;;9.75;9.25;;;;;;;;6491253;31;9021;-60
2023/08/31 11:23:43;;;;;;;;;12.25;11.75;;;;;;;;6488392;46;8998;-59
2023/08/31 11:29:47;;;;;;;;;9.25;8.50;;;;;;;;6491720;39;8960;-59
2023/08/31 11:35:49;;;;;;;;;12.50;11.25;;;;;;;;6491701;39;9052;-58
2023/08/31 11:41:54;;;;;;;;;30.00;28.00;;;;;;;;6491910;39;8946;-60
2023/08/31 11:47:57;;;;;;;;;16.50;16.50;;;;;;;;6492691;39;8980;-59
2023/08/31 11:54:04;;;;;;;;;8.00;8.00;;;;;;;;6490498;46;8914;-59
2023/08/31 12:00:10;;;;;;;;;8.75;7.75;;;;;;;;6492851;39;8939;-59
2023/08/31 12:06:20;;;;;;;;;17.00;15.25;;;;;;;;6490928;46;8922;-58
2023/08/31 12:12:25;;;;;;;;;13.75;11.00;;;;;;;;6491750;46;8898;-59
2023/08/31 12:18:33;;;;;;;;;10.00;10.00;;;;;;;;6537210;36;8989;-59
2023/08/31 12:24:41;;;;;;;;;5.00;5.00;;;;;;;;6490108;39;8914;-59
2023/08/31 12:30:51;;;;;;;;;15.00;14.00;;;;;;;;6489659;46;9028;-58
2023/08/31 12:36:59;;;;;;;;;8.00;7.00;;;;;;;;6488685;46;8930;-57
2023/08/31 12:43:02;;;;;;;;;10.00;10.00;;;;;;;;6490620;39;9588;-58
2023/08/31 12:49:06;;;;;;;;;7.50;7.50;;;;;;;;6490414;46;8922;-58
2023/08/31 12:55:11;;;;;;;;;7.50;7.50;;;;;;;;6489980;31;8926;-59
2023/08/31 13:01:14;;;;;;;;;5.00;5.00;;;;;;;;6492250;39;9726;-58
2023/08/31 13:07:17;;;;;;;;;7.25;7.25;;;;;;;;6489985;39;8987;-59
2023/08/31 13:13:21;;;;;;;;;8.00;7.25;;;;;;;;6491404;46;8993;-59
2023/08/31 13:19:25;;;;;;;;;9.75;9.50;;;;;;;;6488608;46;8897;-58
2023/08/31 13:25:31;;;;;;;;;7.75;7.75;;;;;;;;6489301;39;9106;-59
2023/08/31 13:31:35;;;;;;;;;7.00;7.00;;;;;;;;6488195;39;9598;-59
2023/08/31 13:37:40;;;;;;;;;2.25;2.25;;;;;;;;6486878;39;8961;-58
2023/08/31 13:43:43;;;;;;;;;9.25;9.00;;;;;;;;6489167;39;8972;-59
2023/08/31 13:49:45;;;;;;;;;5.00;5.00;;;;;;;;6490379;31;8860;-59
2023/08/31 13:55:48;;;;;;;;;6.50;6.50;;;;;;;;6490263;46;8911;-58
2023/08/31 14:01:51;;;;;;;;;7.25;6.00;;;;;;;;6490539;46;8960;-58
2023/08/31 14:07:55;;;;;;;;;5.75;5.75;;;;;;;;6491689;39;8845;-59
2023/08/31 14:14:11;;;;;;;;;8.75;7.75;;;;;;;;6490688;39;8860;-59
2023/08/31 14:20:13;;;;;;;;;12.50;10.25;;;;;;;;6490072;39;8965;-58
2023/08/31 14:26:16;;;;;;;;;6.25;6.25;;;;;;;;6491265;46;8926;-58
2023/08/31 14:32:19;;;;;;;;;6.75;6.75;;;;;;;;6489217;46;8871;-59
2023/08/31 14:38:23;;;;;;;;;6.75;6.75;;;;;;;;6490975;39;9463;-58
2023/08/31 14:44:25;;;;;;;;;5.00;5.00;;;;;;;;6488377;39;8930;-58
2023/08/31 14:50:27;;;;;;;;;6.50;6.25;;;;;;;;6489743;39;10087;-59
2023/08/31 14:56:30;;;;;;;;;6.00;6.00;;;;;;;;6491331;39;9574;-58
2023/08/31 15:02:33;;;;;;;;;5.50;4.00;;;;;;;;6489647;39;8958;-58
2023/08/31 15:08:38;;;;;;;;;7.50;7.50;;;;;;;;6489370;39;8910;-58
2023/08/31 15:14:41;;;;;;;;;6.50;6.00;;;;;;;;6488717;39;9453;-58
2023/08/31 15:20:45;;;;;;;;;7.50;7.50;;;;;;;;6488949;39;8923;-57
2023/08/31 15:26:47;;;;;;;;;7.25;5.25;;;;;;;;6489937;31;8915;-58
2023/08/31 15:32:50;;;;;;;;;5.00;5.00;;;;;;;;6488767;47;8945;-58
2023/08/31 15:38:52;;;;;;;;;9.00;7.75;;;;;;;;6489265;47;8826;-58
2023/08/31 15:44:55;;;;;;;;;10.25;7.50;;;;;;;;6488529;31;8995;-59
2023/08/31 15:51:00;;;;;;;;;6.75;6.75;;;;;;;;6488326;39;8892;-60
2023/08/31 15:57:03;;;;;;;;;6.00;6.00;;;;;;;;6490276;39;9524;-58
2023/08/31 16:03:09;;;;;;;;;6.00;6.00;;;;;;;;6487818;31;8948;-58
2023/08/31 16:09:13;;;;;;;;;5.25;5.25;;;;;;;;6489346;31;8847;-58
2023/08/31 16:15:15;;;;;;;;;5.75;3.50;;;;;;;;6488675;39;8912;-58
2023/08/31 16:21:18;;;;;;;;;5.75;5.75;;;;;;;;6490178;39;9564;-57
2023/08/31 16:27:21;;;;;;;;;5.25;5.25;;;;;;;;6491339;46;8912;-58
2023/08/31 16:33:24;;;;;;;;;8.50;8.25;;;;;;;;6489812;31;8952;-58
2023/08/31 16:39:27;;;;;;;;;7.75;7.75;;;;;;;;6489871;31;8984;-59
2023/08/31 16:45:29;;;;;;;;;6.75;6.75;;;;;;;;6488996;46;8909;-57
2023/08/31 16:51:32;;;;;;;;;7.75;7.75;;;;;;;;6490103;46;8883;-58
2023/08/31 16:57:35;;;;;;;;;9.75;8.00;;;;;;;;6490319;46;8871;-58
2023/08/31 17:03:37;;;;;;;;;6.50;6.50;;;;;;;;6489490;31;8928;-58
2023/08/31 17:09:41;;;;;;;;;5.00;5.00;;;;;;;;6490789;39;8874;-58
2023/08/31 17:15:45;;;;;;;;;9.00;9.00;;;;;;;;6491417;39;8877;-58
2023/08/31 17:21:47;;;;;;;;;8.75;8.75;;;;;;;;6490275;39;9645;-58
2023/08/31 17:27:49;;;;;;;;;6.00;6.00;;;;;;;;6490136;39;9576;-58
2023/08/31 17:33:52;;;;;;;;;12.00;10.25;;;;;;;;6490048;31;9100;-58
2023/08/31 17:39:59;;;;;;;;;11.75;11.75;;;;;;;;6490141;39;8856;-58
2023/08/31 17:46:03;;;;;;;;;12.25;11.25;;;;;;;;6488576;31;8898;-58
2023/08/31 17:52:06;;;;;;;;;10.75;10.75;;;;;;;;6489507;39;8888;-58
2023/08/31 17:58:08;;;;;;;;;11.25;9.75;;;;;;;;6488887;46;8914;-57
2023/08/31 18:04:12;;;;;;;;;10.25;9.25;;;;;;;;6489180;31;9023;-59
2023/08/31 18:10:16;;;;;;;;;12.50;11.50;;;;;;;;6490943;39;8897;-58
2023/08/31 18:16:19;;;;;;;;;16.25;14.25;;;;;;;;6489220;46;8888;-58
2023/08/31 18:22:26;;;;;;;;;14.50;14.50;;;;;;;;6359277;39;10001929;-56
2023/08/31 18:28:28;;;;;;;;;12.00;12.00;;;;;;;;6490018;31;12526;-58
2023/08/31 18:34:34;;;;;;;;;17.00;13.25;;;;;;;;6489623;39;8891;-58
2023/08/31 18:40:36;;;;;;;;;12.00;11.50;;;;;;;;6489047;46;8943;-58
2023/08/31 18:46:39;;;;;;;;;16.75;15.75;;;;;;;;6489628;46;8886;-57
2023/08/31 18:52:44;;;;;;;;;18.75;14.75;;;;;;;;6489858;39;8852;-58
2023/08/31 18:58:47;;;;;;;;;17.25;15.25;;;;;;;;6489329;46;8977;-58
2023/08/31 19:04:51;;;;;;;;;15.75;13.75;;;;;;;;6488629;39;9572;-57
2023/08/31 19:10:55;;;;;;;;;21.50;21.00;;;;;;;;6489442;31;8895;-57
2023/08/31 19:16:59;;;;;;;;;16.00;14.25;;;;;;;;6489406;31;9551;-57
2023/08/31 19:23:04;;;;;;;;;22.00;19.75;;;;;;;;6488311;39;8862;-58
2023/08/31 19:29:06;;;;;;;;;23.50;22.75;;;;;;;;6489366;39;9559;-57
2023/08/31 19:35:08;;;;;;;;;22.25;19.75;;;;;;;;6488301;47;8875;-57
2023/08/31 19:41:31;;;;;;;;;24.50;20.25;;;;;;;;6490091;31;8975;-59
2023/08/31 19:47:35;;;;;;;;;20.00;18.33;;;;;;;;6488312;39;8965;-57
2023/08/31 19:53:37;;;;;;;;;21.33;21.33;;;;;;;;6491408;46;10232;-58
2023/08/31 19:59:42;;;;;;;;;18.00;16.50;;;;;;;;6490153;39;8907;-58
2023/08/31 20:05:45;;;;;;;;;22.25;20.50;;;;;;;;6489758;39;8888;-57
2023/08/31 20:11:47;;;;;;;;;19.50;19.00;;;;;;;;6491158;46;8871;-57
2023/08/31 20:17:51;;;;;;;;;18.75;18.75;;;;;;;;6490246;46;8979;-57
2023/08/31 20:23:55;;;;;;;;;21.25;19.00;;;;;;;;6490952;39;8941;-58
2023/08/31 20:30:00;;;;;;;;;21.75;17.00;;;;;;;;6489056;36;128000;-57
2023/08/31 20:36:07;;;;;;;;;21.75;20.50;;;;;;;;6489103;39;8869;-58
2023/08/31 20:42:13;;;;;;;;;23.75;22.25;;;;;;;;6490028;39;8886;-58
2023/08/31 20:48:15;;;;;;;;;22.00;22.00;;;;;;;;6488212;39;9108;-58
2023/08/31 20:54:20;;;;;;;;;21.00;18.75;;;;;;;;6489528;46;8886;-57
2023/08/31 21:00:25;;;;;;;;;18.25;17.50;;;;;;;;6489943;39;8983;-57
2023/08/31 21:06:28;;;;;;;;;19.33;18.67;;;;;;;;6489772;39;8878;-58
2023/08/31 21:12:31;;;;;;;;;21.75;19.50;;;;;;;;6489650;39;8853;-58
2023/08/31 21:18:36;;;;;;;;;19.33;17.33;;;;;;;;6488328;46;8874;-58
2023/08/31 21:24:40;;;;;;;;;18.67;14.33;;;;;;;;6489913;39;8916;-58
2023/08/31 21:30:42;;;;;;;;;15.25;11.75;;;;;;;;6489226;39;9573;-58
2023/08/31 21:36:45;;;;;;;;;14.50;14.50;;;;;;;;6489372;39;9640;-58
2023/08/31 21:42:47;;;;;;;;;15.75;15.75;;;;;;;;6488548;39;8858;-57
2023/08/31 21:48:52;;;;;;;;;17.33;15.00;;;;;;;;6489490;39;8914;-57
2023/08/31 21:54:54;;;;;;;;;14.50;14.25;;;;;;;;6489425;39;8862;-58
2023/08/31 22:00:56;;;;;;;;;13.00;13.00;;;;;;;;6487678;39;9027;-57
2023/08/31 22:06:59;;;;;;;;;10.50;10.50;;;;;;;;6488175;39;9581;-58
2023/08/31 22:13:01;;;;;;;;;14.25;13.25;;;;;;;;6488335;46;8948;-58
2023/08/31 22:19:06;;;;;;;;;13.50;11.50;;;;;;;;6488416;39;8898;-58
2023/08/31 22:25:10;;;;;;;;;7.00;7.00;;;;;;;;6487315;31;8961;-58
2023/08/31 22:31:12;;;;;;;;;13.25;12.50;;;;;;;;6488130;39;8946;-57
2023/08/31 22:37:17;;;;;;;;;12.50;11.50;;;;;;;;6489038;39;9512;-58
2023/08/31 22:43:20;;;;;;;;;11.75;11.75;;;;;;;;6488601;39;8945;-57
2023/08/31 22:49:24;;;;;;;;;11.50;11.00;;;;;;;;6487717;46;8887;-57
2023/08/31 22:55:28;;;;;;;;;10.33;10.33;;;;;;;;6488350;47;8866;-57
2023/08/31 23:01:30;;;;;;;;;15.00;12.00;;;;;;;;6487782;39;9579;-57
2023/08/31 23:07:33;;;;;;;;;11.75;11.75;;;;;;;;6486458;47;8867;-57
2023/08/31 23:13:36;;;;;;;;;11.25;11.25;;;;;;;;6486920;39;8888;-58
2023/08/31 23:19:38;;;;;;;;;11.00;11.00;;;;;;;;6486773;46;8966;-57
2023/08/31 23:25:42;;;;;;;;;11.50;11.50;;;;;;;;6488053;46;9046;-58
2023/08/31 23:31:45;;;;;;;;;12.00;11.67;;;;;;;;6489176;39;8917;-57
2023/08/31 23:37:54;;;;;;;;;10.00;9.25;;;;;;;;6488317;46;8912;-59
2023/08/31 23:43:57;;;;;;;;;11.00;11.00;;;;;;;;6489414;39;9009;-58
2023/08/31 23:49:59;;;;;;;;;11.75;11.25;;;;;;;;6488522;39;8853;-57
2023/08/31 23:56:05;;;;;;;;;12.25;11.25;;;;;;;;6488949;46;8885;-57
